createdAt,value
2019-05-25T00:02:30.766Z,23.09
2019-05-25T00:07:34.529Z,23.11
2019-05-25T00:12:38.311Z,23.11
2019-05-25T00:17:42.176Z,23.07
2019-05-25T00:22:45.961Z,23.06
2019-05-25T00:27:49.734Z,23.05
2019-05-25T00:32:53.496Z,23.07
2019-05-25T00:37:57.260Z,23.06
2019-05-25T00:43:01.025Z,23.03
2019-05-25T00:48:04.811Z,23.02
2019-05-25T00:53:08.595Z,23.02
2019-05-25T00:58:12.375Z,22.96
2019-05-25T01:03:16.135Z,22.95
2019-05-25T01:08:19.991Z,22.94
2019-05-25T01:13:23.809Z,22.91
2019-05-25T01:18:27.575Z,22.91
2019-05-25T01:23:31.507Z,22.90
2019-05-25T01:28:37.939Z,22.88
2019-05-25T01:33:41.877Z,22.88
2019-05-25T01:38:45.628Z,22.88
2019-05-25T01:43:49.510Z,22.89
2019-05-25T01:48:53.274Z,22.89
2019-05-25T01:53:57.020Z,22.86
2019-05-25T01:59:00.837Z,22.86
2019-05-25T02:04:04.596Z,22.84
2019-05-25T02:09:08.563Z,22.84
2019-05-25T02:14:12.335Z,22.83
2019-05-25T02:19:16.155Z,22.81
2019-05-25T02:24:19.883Z,22.78
2019-05-25T02:29:23.680Z,22.80
2019-05-25T02:34:27.432Z,22.80
2019-05-25T02:39:31.189Z,22.79
2019-05-25T02:44:34.993Z,22.75
2019-05-25T02:49:38.829Z,22.76
2019-05-25T02:54:42.658Z,22.76
2019-05-25T02:59:46.445Z,22.74
2019-05-25T03:04:50.217Z,22.76
2019-05-25T03:09:53.971Z,22.74
2019-05-25T03:14:57.747Z,22.73
2019-05-25T03:20:01.540Z,22.72
2019-05-25T03:25:06.031Z,22.72
2019-05-25T03:30:09.942Z,22.69
2019-05-25T03:35:13.770Z,22.72
2019-05-25T03:40:17.546Z,22.73
2019-05-25T03:45:21.425Z,22.73
2019-05-25T03:50:25.340Z,22.69
2019-05-25T03:55:29.151Z,22.67
2019-05-25T04:00:34.674Z,22.70
2019-05-25T04:05:38.486Z,22.67
2019-05-25T04:10:42.390Z,22.66
2019-05-25T04:15:46.174Z,22.65
2019-05-25T04:20:49.945Z,22.65
2019-05-25T04:25:53.825Z,22.63
2019-05-25T04:30:57.696Z,22.63
2019-05-25T04:36:01.608Z,22.64
2019-05-25T04:41:05.443Z,22.63
2019-05-25T04:46:09.225Z,22.63
2019-05-25T04:51:13.000Z,22.64
2019-05-25T04:56:16.825Z,22.62
2019-05-25T05:01:22.574Z,22.62
2019-05-25T05:06:26.202Z,22.62
2019-05-25T05:11:29.961Z,22.62
2019-05-25T05:16:33.810Z,22.61
2019-05-25T05:21:37.630Z,22.60
2019-05-25T05:26:54.612Z,22.60
2019-05-25T05:31:47.055Z,22.54
2019-05-25T05:36:50.828Z,22.54
2019-05-25T05:41:55.171Z,22.64
2019-05-25T05:47:00.113Z,22.64
2019-05-25T05:52:04.186Z,22.59
2019-05-25T05:57:12.313Z,22.60
2019-05-25T06:02:13.453Z,22.61
2019-05-25T06:07:17.252Z,22.62
2019-05-25T06:12:21.479Z,22.60
2019-05-25T06:17:25.239Z,22.59
2019-05-25T06:22:29.036Z,22.61
2019-05-25T06:27:32.821Z,22.61
2019-05-25T06:32:36.796Z,22.53
2019-05-25T06:37:41.251Z,22.61
2019-05-25T06:42:46.261Z,22.61
2019-05-25T06:47:50.052Z,22.61
2019-05-25T06:52:57.252Z,22.65
2019-05-25T06:57:59.312Z,22.65
2019-05-25T07:03:03.096Z,20.10
2019-05-25T07:08:06.924Z,19.57
2019-05-25T07:13:10.684Z,19.55
2019-05-25T07:18:14.444Z,19.04
2019-05-25T07:23:18.218Z,19.04
2019-05-25T07:28:22.096Z,19.24
2019-05-25T07:33:25.864Z,19.04
2019-05-25T07:38:29.619Z,18.77
2019-05-25T07:43:33.391Z,18.20
2019-05-25T07:48:37.158Z,18.32
2019-05-25T07:53:40.911Z,20.18
2019-05-25T07:58:44.668Z,17.57
2019-05-25T08:03:48.590Z,16.94
2019-05-25T08:08:52.610Z,16.49
2019-05-25T08:13:56.380Z,16.49
2019-05-25T08:19:00.135Z,17.21
2019-05-25T08:24:03.913Z,16.40
2019-05-25T08:29:07.679Z,16.34
2019-05-25T08:34:11.452Z,16.52
2019-05-25T08:39:15.224Z,16.81
2019-05-25T08:44:18.993Z,16.81
2019-05-25T08:49:22.773Z,16.06
2019-05-25T08:54:26.701Z,18.23
2019-05-25T08:59:30.475Z,18.23
2019-05-25T09:04:34.227Z,20.41
2019-05-25T09:09:37.984Z,20.66
2019-05-25T09:14:41.765Z,20.85
2019-05-25T09:19:45.496Z,20.85
2019-05-25T09:24:49.245Z,20.97
2019-05-25T09:29:53.040Z,21.19
2019-05-25T09:34:56.812Z,21.23
2019-05-25T09:40:00.600Z,21.31
2019-05-25T09:45:04.978Z,21.31
2019-05-25T09:50:08.814Z,21.53
2019-05-25T09:55:12.572Z,21.58
2019-05-25T10:00:16.408Z,21.57
2019-05-25T10:05:20.195Z,21.62
2019-05-25T10:10:24.012Z,21.61
2019-05-25T10:15:28.414Z,21.61
2019-05-25T10:20:32.345Z,21.69
2019-05-25T10:25:36.126Z,21.74
2019-05-25T10:30:39.907Z,21.88
2019-05-25T10:35:43.664Z,21.89
2019-05-25T10:40:47.441Z,21.89
2019-05-25T10:45:51.226Z,21.93
2019-05-25T10:50:55.004Z,21.88
2019-05-25T10:55:58.895Z,20.58
2019-05-25T11:01:02.678Z,21.63
2019-05-25T11:06:06.730Z,21.93
2019-05-25T11:11:10.505Z,21.90
2019-05-25T11:16:14.285Z,21.90
2019-05-25T11:21:18.075Z,22.00
2019-05-25T11:26:21.845Z,22.15
2019-05-25T11:31:25.673Z,22.08
2019-05-25T11:36:29.477Z,22.08
2019-05-25T11:41:33.234Z,22.23
2019-05-25T11:46:37.010Z,22.22
2019-05-25T11:51:40.817Z,22.22
2019-05-25T11:56:44.623Z,22.23
2019-05-25T12:01:48.470Z,22.32
2019-05-25T12:06:52.309Z,22.23
2019-05-25T12:11:56.153Z,22.24
2019-05-25T12:16:59.982Z,22.22
2019-05-25T12:22:03.765Z,22.15
2019-05-25T12:27:07.537Z,22.31
2019-05-25T12:32:11.353Z,22.28
2019-05-25T12:37:15.125Z,22.33
2019-05-25T12:42:19.159Z,22.45
2019-05-25T12:47:23.021Z,22.41
2019-05-25T12:52:26.854Z,22.42
2019-05-25T12:57:30.620Z,22.40
2019-05-25T13:02:34.450Z,22.52
2019-05-25T13:07:38.243Z,22.73
2019-05-25T13:12:42.041Z,22.73
2019-05-25T13:17:45.817Z,22.73
2019-05-25T13:22:49.586Z,22.72
2019-05-25T13:27:53.361Z,22.81
2019-05-25T13:32:57.491Z,22.80
2019-05-25T13:38:01.310Z,22.81
2019-05-25T13:43:05.110Z,22.81
2019-05-25T13:48:08.960Z,22.81
2019-05-25T13:53:12.736Z,22.80
2019-05-25T13:58:16.516Z,22.77
2019-05-25T14:03:20.376Z,22.74
2019-05-25T14:08:24.155Z,22.74
2019-05-25T14:13:28.017Z,22.84
2019-05-25T14:18:31.789Z,22.79
2019-05-25T14:23:35.784Z,22.83
2019-05-25T14:28:39.559Z,22.86
2019-05-25T14:33:43.323Z,22.86
2019-05-25T14:38:47.189Z,22.85
2019-05-25T14:43:50.955Z,22.89
2019-05-25T14:48:54.730Z,22.86
2019-05-25T14:53:58.504Z,22.86
2019-05-25T14:59:02.381Z,22.82
2019-05-25T15:04:06.173Z,22.82
2019-05-25T15:09:09.948Z,22.81
2019-05-25T15:14:13.749Z,22.87
2019-05-25T15:19:17.672Z,22.88
2019-05-25T15:24:21.446Z,22.88
2019-05-25T15:29:25.231Z,23.22
2019-05-25T15:34:29.179Z,23.00
2019-05-25T15:39:32.954Z,23.00
2019-05-25T15:44:36.734Z,22.96
2019-05-25T15:49:40.513Z,22.92
2019-05-25T15:54:44.306Z,22.90
2019-05-25T15:59:48.081Z,22.90
2019-05-25T16:04:51.859Z,22.93
2019-05-25T16:09:55.633Z,23.01
2019-05-25T16:14:59.417Z,22.99
2019-05-25T16:20:03.208Z,23.00
2019-05-25T16:25:07.648Z,23.00
2019-05-25T16:30:11.499Z,22.91
2019-05-25T16:35:15.282Z,23.08
2019-05-25T16:40:19.062Z,23.07
2019-05-25T16:45:22.833Z,23.05
2019-05-25T16:50:26.636Z,23.57
2019-05-25T16:55:30.421Z,21.99
2019-05-25T17:00:34.231Z,22.94
2019-05-25T17:05:38.068Z,23.01
2019-05-25T17:10:42.091Z,23.03
2019-05-25T17:15:46.000Z,23.07
2019-05-25T17:20:49.789Z,23.10
2019-05-25T17:25:53.603Z,23.09
2019-05-25T17:30:57.391Z,23.41
2019-05-25T17:36:01.202Z,23.14
2019-05-25T17:41:05.136Z,23.27
2019-05-25T17:46:08.960Z,23.16
2019-05-25T17:51:12.747Z,23.25
2019-05-25T17:56:16.644Z,23.22
2019-05-25T18:01:20.431Z,23.27
2019-05-25T18:06:24.204Z,23.19
2019-05-25T18:11:27.989Z,23.21
2019-05-25T18:16:31.765Z,23.19
2019-05-25T18:21:35.542Z,23.19
2019-05-25T18:26:39.316Z,23.18
2019-05-25T18:31:43.095Z,23.02
2019-05-25T18:36:46.865Z,23.02
2019-05-25T18:41:50.653Z,23.15
2019-05-25T18:46:54.434Z,23.22
2019-05-25T18:51:58.224Z,23.22
2019-05-25T18:57:05.324Z,23.22
2019-05-25T19:02:07.484Z,23.24
2019-05-25T19:07:11.298Z,23.21
2019-05-25T19:12:15.063Z,23.13
2019-05-25T19:17:18.913Z,23.19
2019-05-25T19:22:22.765Z,23.21
2019-05-25T19:27:26.581Z,23.15
2019-05-25T19:32:30.301Z,23.17
2019-05-25T19:37:34.083Z,23.07
2019-05-25T19:42:37.827Z,23.18
2019-05-25T19:47:41.587Z,23.15
2019-05-25T19:52:45.344Z,23.17
2019-05-25T19:57:49.186Z,23.17
2019-05-25T20:02:52.941Z,23.16
2019-05-25T20:07:56.784Z,23.16
2019-05-25T20:13:00.649Z,23.18
2019-05-25T20:18:04.510Z,23.14
2019-05-25T20:23:08.308Z,23.17
2019-05-25T20:28:12.068Z,23.20
2019-05-25T20:33:26.932Z,23.21
2019-05-25T20:38:21.342Z,23.14
2019-05-25T20:43:25.113Z,23.12
2019-05-25T20:48:28.985Z,23.12
2019-05-25T20:53:32.794Z,23.11
2019-05-25T20:58:39.087Z,23.14
2019-05-25T21:03:42.050Z,23.14
2019-05-25T21:08:45.832Z,23.18
2019-05-25T21:13:49.603Z,23.14
2019-05-25T21:18:53.405Z,23.06
2019-05-25T21:23:57.199Z,23.15
2019-05-25T21:29:00.948Z,23.15
2019-05-25T21:34:04.788Z,23.16
2019-05-25T21:39:08.605Z,23.22
2019-05-25T21:44:12.475Z,23.22
2019-05-25T21:49:16.363Z,23.23
2019-05-25T21:54:20.182Z,23.25
2019-05-25T21:59:24.052Z,23.24
2019-05-25T22:04:27.825Z,23.26
2019-05-25T22:09:31.599Z,23.26
2019-05-25T22:14:35.369Z,23.26
2019-05-25T22:19:39.260Z,23.26
2019-05-25T22:24:43.116Z,23.26
2019-05-25T22:29:46.948Z,23.26
2019-05-25T22:34:50.769Z,23.27
2019-05-25T22:39:54.552Z,23.26
2019-05-25T22:44:58.408Z,23.26
2019-05-25T22:50:02.304Z,23.31
2019-05-25T22:55:06.564Z,23.31
2019-05-25T23:00:10.573Z,23.28
2019-05-25T23:05:14.437Z,23.26
2019-05-25T23:10:18.243Z,23.28
2019-05-25T23:15:22.003Z,23.27
2019-05-25T23:20:25.796Z,23.27
2019-05-25T23:25:29.577Z,23.25
2019-05-25T23:30:33.337Z,23.25
2019-05-25T23:35:37.113Z,23.34
2019-05-25T23:40:41.170Z,23.29
2019-05-25T23:45:45.022Z,23.29
2019-05-25T23:50:48.835Z,23.29
2019-05-25T23:55:52.609Z,23.27
